Terminal Aerodrome Forecast
Issued by NWS Sioux Falls, SD

Home | Current Version | Previous Version | Text Only | Print | Product List | Glossary On
Versions: 1 2 3 4 5 6 7 8 9 10 11 12 13
000
FTUS43 KFSD 101120
TAFFSD
TAF
KFSD 101120Z 1012/1112 08006KT 6SM -SN SCT015 OVC025
     FM101400 09008KT 2SM -SN OVC015
     FM101600 11013KT 3/4SM -SN OVC010
     FM110000 11014KT 1SM -SN OVC008
     FM110900 12009KT 3SM -SN OVC008=

USA.gov is the U.S. government's official web portal to all federal, state and local government web resources and services.